KEFD/EFD METAR and TAF weather

Enter ICAO airport designator
Station Type Date Time Source
KEFD METAR 2020/06/03 21:50 UTC NOAA

KEFD 032150Z 20008KT 10SM BKN020 BKN140 28/24 A2992


Station Type Date Time Source
KEFD Decoded METAR 2020/06/03 21:50 UTC NOAA

Houston / Ellington, TX, United States (KEFD) 29-36N 095-10W
Jun 03, 2020 - 05:50 PM EDT / 2020.06.03 2150 UTC
Wind: from the SSW (200 degrees) at 9 MPH (8 KT):0
Visibility: 10 mile(s):0
Sky conditions: mostly cloudy
Temperature: 82 F (28 C)
Dew Point: 75 F (24 C)
Relative Humidity: 78%
Pressure (altimeter): 29.92 in. Hg (1013 hPa)
ob: KEFD 032150Z 20008KT 10SM BKN020 BKN140 28/24 A2992
cycle: 22

Station Type Date Time Source
KEFD TAF 2020/06/03 20:09 UTC NOAA

TAF KEFD 032000Z 0320/0502 15009KT 8000 -SHRA FEW010 BKN020 QNH2990INS
TEMPO 0320/0400 14025G35KT 4800 -TSRA BKN030CB
BECMG 0400/0401 14509KT 9999 NSW SCT010 QNH2990INS
BECMG 0405/0406 VRB06KT 8000 BR BKN010 QNH2987INS
BECMG 0414/0415 16009KT 8000 -SHRA BKN030 QNH2992INS
TEMPO 0418/0422 VRB10G15KT 8000 -TSRA BKN030CB TX29/0320Z TN23/0411Z

Example: see airport list